MDF weather

Taylor County Airport
Medford, Wisconsin, United States

Public forecast

Using degrees Fahrenheit for public forecast. Weather courtesy of forecast.io.

Current aviation weather report (METAR) for Taylor County Airport

Retrieved 2020/06/07 05:15 UTC (11 minutes ago):

KMDZ 070515Z AUTO 11005KT 10SM CLR 15/11 A3012 RMK AO2 T01450111

Closest aviation forecast (TAF) to Taylor County Airport

Closest forecast is Wausau Downtown Airport, 30.6 nm (56.6 km) ESE. Retrieved 2020-06-07 00:28 UTC (5 hours ago):

TAF KAUW 062326Z 0700/0724 10005KT P6SM BKN150 FM070700 11008KT P6SM SCT050 BKN090 TEMPO 0710/0714 -SHRA BKN040 FM071400 13011G17KT P6SM BKN080 FM072000 14011G18KT P6SM SCT120